sensor_id;sensor_type;location;lat;lon;timestamp;pressure;altitude;pressure_sealevel;temperature
64904;BMP280;51401;48.882;12.598;2024-01-30T00:01:05;64179.81;;;-137.53
64904;BMP280;51401;48.882;12.598;2024-01-30T00:03:31;64179.81;;;-137.53
64904;BMP280;51401;48.882;12.598;2024-01-30T00:05:56;64179.81;;;-137.53
64904;BMP280;51401;48.882;12.598;2024-01-30T00:08:21;64179.81;;;-137.53
64904;BMP280;51401;48.882;12.598;2024-01-30T00:10:47;64181.78;;;-137.53
64904;BMP280;51401;48.882;12.598;2024-01-30T00:13:12;64177.81;;;-137.53
64904;BMP280;51401;48.882;12.598;2024-01-30T00:15:39;64179.81;;;-137.53
64904;BMP280;51401;48.882;12.598;2024-01-30T00:18:04;64179.81;;;-137.53
64904;BMP280;51401;48.882;12.598;2024-01-30T00:20:29;64179.81;;;-137.53
64904;BMP280;51401;48.882;12.598;2024-01-30T00:22:54;64179.81;;;-137.53
64904;BMP280;51401;48.882;12.598;2024-01-30T00:25:20;64179.81;;;-137.53
64904;BMP280;51401;48.882;12.598;2024-01-30T00:27:45;64179.81;;;-137.53
64904;BMP280;51401;48.882;12.598;2024-01-30T00:30:11;64179.81;;;-137.53
64904;BMP280;51401;48.882;12.598;2024-01-30T00:32:36;64179.81;;;-137.53
64904;BMP280;51401;48.882;12.598;2024-01-30T00:35:02;64181.78;;;-137.53
64904;BMP280;51401;48.882;12.598;2024-01-30T00:37:27;64181.78;;;-137.53
64904;BMP280;51401;48.882;12.598;2024-01-30T00:39:52;64179.81;;;-137.53
64904;BMP280;51401;48.882;12.598;2024-01-30T00:42:18;64181.78;;;-137.53
64904;BMP280;51401;48.882;12.598;2024-01-30T00:44:43;64179.81;;;-137.53
64904;BMP280;51401;48.882;12.598;2024-01-30T00:47:08;64179.81;;;-137.53
64904;BMP280;51401;48.882;12.598;2024-01-30T00:49:34;64179.81;;;-137.53
64904;BMP280;51401;48.882;12.598;2024-01-30T00:51:59;64179.81;;;-137.53
64904;BMP280;51401;48.882;12.598;2024-01-30T00:54:24;64179.81;;;-137.53
64904;BMP280;51401;48.882;12.598;2024-01-30T00:56:49;64183.78;;;-137.53
64904;BMP280;51401;48.882;12.598;2024-01-30T00:59:15;64183.78;;;-137.53
64904;BMP280;51401;48.882;12.598;2024-01-30T01:01:40;64177.81;;;-137.53
64904;BMP280;51401;48.882;12.598;2024-01-30T01:04:05;64181.78;;;-137.53
64904;BMP280;51401;48.882;12.598;2024-01-30T01:06:32;64183.78;;;-137.53
64904;BMP280;51401;48.882;12.598;2024-01-30T01:08:57;64179.81;;;-137.53
64904;BMP280;51401;48.882;12.598;2024-01-30T01:11:22;64177.81;;;-137.53
64904;BMP280;51401;48.882;12.598;2024-01-30T01:13:48;64179.81;;;-137.53
64904;BMP280;51401;48.882;12.598;2024-01-30T01:16:13;64179.81;;;-137.53
64904;BMP280;51401;48.882;12.598;2024-01-30T01:18:38;64179.81;;;-137.53
64904;BMP280;51401;48.882;12.598;2024-01-30T01:21:04;64179.81;;;-137.53
64904;BMP280;51401;48.882;12.598;2024-01-30T01:23:30;64183.78;;;-137.53
64904;BMP280;51401;48.882;12.598;2024-01-30T01:25:55;64185.75;;;-137.53
64904;BMP280;51401;48.882;12.598;2024-01-30T01:28:20;64183.78;;;-137.53
64904;BMP280;51401;48.882;12.598;2024-01-30T01:30:45;64179.81;;;-137.53
64904;BMP280;51401;48.882;12.598;2024-01-30T01:33:11;64179.81;;;-137.53
64904;BMP280;51401;48.882;12.598;2024-01-30T01:35:39;64179.81;;;-137.53
64904;BMP280;51401;48.882;12.598;2024-01-30T01:38:05;64183.78;;;-137.53
64904;BMP280;51401;48.882;12.598;2024-01-30T01:40:30;64177.81;;;-137.53
64904;BMP280;51401;48.882;12.598;2024-01-30T01:42:56;64181.78;;;-137.53
64904;BMP280;51401;48.882;12.598;2024-01-30T01:45:22;64183.78;;;-137.53
64904;BMP280;51401;48.882;12.598;2024-01-30T01:47:50;64181.78;;;-137.53
64904;BMP280;51401;48.882;12.598;2024-01-30T01:50:16;64179.81;;;-137.53
64904;BMP280;51401;48.882;12.598;2024-01-30T01:52:49;64183.78;;;-137.53
64904;BMP280;51401;48.882;12.598;2024-01-30T01:55:16;64183.78;;;-137.53
64904;BMP280;51401;48.882;12.598;2024-01-30T01:57:42;64187.75;;;-137.53
64904;BMP280;51401;48.882;12.598;2024-01-30T02:00:09;64185.75;;;-137.53
64904;BMP280;51401;48.882;12.598;2024-01-30T02:02:36;64183.78;;;-137.53
64904;BMP280;51401;48.882;12.598;2024-01-30T02:05:01;64179.81;;;-137.53
64904;BMP280;51401;48.882;12.598;2024-01-30T02:07:27;64181.78;;;-137.53
64904;BMP280;51401;48.882;12.598;2024-01-30T02:09:53;64183.78;;;-137.53
64904;BMP280;51401;48.882;12.598;2024-01-30T02:12:18;64183.78;;;-137.53
64904;BMP280;51401;48.882;12.598;2024-01-30T02:14:47;64179.81;;;-137.53
64904;BMP280;51401;48.882;12.598;2024-01-30T02:17:13;64181.78;;;-137.53
64904;BMP280;51401;48.882;12.598;2024-01-30T02:19:39;64183.78;;;-137.53
64904;BMP280;51401;48.882;12.598;2024-01-30T02:22:05;64187.75;;;-137.53
64904;BMP280;51401;48.882;12.598;2024-01-30T02:24:30;64183.78;;;-137.53
64904;BMP280;51401;48.882;12.598;2024-01-30T02:26:55;64183.78;;;-137.53
64904;BMP280;51401;48.882;12.598;2024-01-30T02:29:21;64183.78;;;-137.53
64904;BMP280;51401;48.882;12.598;2024-01-30T02:31:46;64181.78;;;-137.53
64904;BMP280;51401;48.882;12.598;2024-01-30T02:34:11;64185.75;;;-137.53
64904;BMP280;51401;48.882;12.598;2024-01-30T02:36:37;64179.81;;;-137.53
64904;BMP280;51401;48.882;12.598;2024-01-30T02:39:03;64187.75;;;-137.53
64904;BMP280;51401;48.882;12.598;2024-01-30T02:41:28;64183.78;;;-137.53
64904;BMP280;51401;48.882;12.598;2024-01-30T02:43:53;64183.78;;;-137.53
64904;BMP280;51401;48.882;12.598;2024-01-30T02:46:18;64185.75;;;-137.53
64904;BMP280;51401;48.882;12.598;2024-01-30T02:48:44;64181.78;;;-137.53
64904;BMP280;51401;48.882;12.598;2024-01-30T02:51:09;64181.78;;;-137.53
64904;BMP280;51401;48.882;12.598;2024-01-30T02:53:34;64183.78;;;-137.53
64904;BMP280;51401;48.882;12.598;2024-01-30T02:56:02;64183.78;;;-137.53
64904;BMP280;51401;48.882;12.598;2024-01-30T02:58:27;64185.75;;;-137.53
64904;BMP280;51401;48.882;12.598;2024-01-30T03:00:53;64185.75;;;-137.53
64904;BMP280;51401;48.882;12.598;2024-01-30T03:03:18;64183.78;;;-137.53
64904;BMP280;51401;48.882;12.598;2024-01-30T03:05:43;64185.75;;;-137.53
64904;BMP280;51401;48.882;12.598;2024-01-30T03:08:09;64185.75;;;-137.53
64904;BMP280;51401;48.882;12.598;2024-01-30T03:10:34;64179.81;;;-137.53
64904;BMP280;51401;48.882;12.598;2024-01-30T03:12:59;64183.78;;;-137.53
64904;BMP280;51401;48.882;12.598;2024-01-30T03:15:25;64183.78;;;-137.53
64904;BMP280;51401;48.882;12.598;2024-01-30T03:17:50;64183.78;;;-137.53
64904;BMP280;51401;48.882;12.598;2024-01-30T03:20:15;64185.75;;;-137.53
64904;BMP280;51401;48.882;12.598;2024-01-30T03:22:41;64181.78;;;-137.53
64904;BMP280;51401;48.882;12.598;2024-01-30T03:25:06;64179.81;;;-137.53
64904;BMP280;51401;48.882;12.598;2024-01-30T03:27:31;64183.78;;;-137.53
64904;BMP280;51401;48.882;12.598;2024-01-30T03:29:57;64183.78;;;-137.53
64904;BMP280;51401;48.882;12.598;2024-01-30T03:32:22;64181.78;;;-137.53
64904;BMP280;51401;48.882;12.598;2024-01-30T03:34:47;64183.78;;;-137.53
64904;BMP280;51401;48.882;12.598;2024-01-30T03:37:14;64185.75;;;-137.53
64904;BMP280;51401;48.882;12.598;2024-01-30T03:39:39;64183.78;;;-137.53
64904;BMP280;51401;48.882;12.598;2024-01-30T03:42:05;64181.78;;;-137.53
64904;BMP280;51401;48.882;12.598;2024-01-30T03:44:30;64185.75;;;-137.53
64904;BMP280;51401;48.882;12.598;2024-01-30T03:46:55;64187.75;;;-137.53
64904;BMP280;51401;48.882;12.598;2024-01-30T03:49:20;64181.78;;;-137.53
64904;BMP280;51401;48.882;12.598;2024-01-30T03:51:46;64183.78;;;-137.53
64904;BMP280;51401;48.882;12.598;2024-01-30T03:54:12;64183.78;;;-137.53
64904;BMP280;51401;48.882;12.598;2024-01-30T03:56:38;64185.75;;;-137.53
64904;BMP280;51401;48.882;12.598;2024-01-30T03:59:03;64187.75;;;-137.53
64904;BMP280;51401;48.882;12.598;2024-01-30T04:01:28;64185.75;;;-137.53
64904;BMP280;51401;48.882;12.598;2024-01-30T04:03:53;64185.75;;;-137.53
64904;BMP280;51401;48.882;12.598;2024-01-30T04:06:19;64185.75;;;-137.53
64904;BMP280;51401;48.882;12.598;2024-01-30T04:08:44;64185.75;;;-137.53
64904;BMP280;51401;48.882;12.598;2024-01-30T04:11:09;64183.78;;;-137.53
64904;BMP280;51401;48.882;12.598;2024-01-30T04:13:35;64183.78;;;-137.53
64904;BMP280;51401;48.882;12.598;2024-01-30T04:16:01;64183.78;;;-137.53
64904;BMP280;51401;48.882;12.598;2024-01-30T04:18:28;64185.75;;;-137.53
64904;BMP280;51401;48.882;12.598;2024-01-30T04:20:53;64185.75;;;-137.53
64904;BMP280;51401;48.882;12.598;2024-01-30T04:23:19;64183.78;;;-137.53
64904;BMP280;51401;48.882;12.598;2024-01-30T04:25:44;64181.78;;;-137.53
64904;BMP280;51401;48.882;12.598;2024-01-30T04:28:10;64185.75;;;-137.53
64904;BMP280;51401;48.882;12.598;2024-01-30T04:30:37;64183.78;;;-137.53
64904;BMP280;51401;48.882;12.598;2024-01-30T04:33:02;64183.78;;;-137.53
64904;BMP280;51401;48.882;12.598;2024-01-30T04:35:28;64185.75;;;-137.53
64904;BMP280;51401;48.882;12.598;2024-01-30T04:37:53;64187.75;;;-137.53
64904;BMP280;51401;48.882;12.598;2024-01-30T04:40:20;64183.78;;;-137.53
64904;BMP280;51401;48.882;12.598;2024-01-30T04:42:45;64183.78;;;-137.53
64904;BMP280;51401;48.882;12.598;2024-01-30T04:45:10;64185.75;;;-137.53
64904;BMP280;51401;48.882;12.598;2024-01-30T04:47:36;64181.78;;;-137.53
64904;BMP280;51401;48.882;12.598;2024-01-30T04:50:01;64183.78;;;-137.53
64904;BMP280;51401;48.882;12.598;2024-01-30T04:52:28;64185.75;;;-137.53
64904;BMP280;51401;48.882;12.598;2024-01-30T04:54:53;64185.75;;;-137.53
64904;BMP280;51401;48.882;12.598;2024-01-30T04:57:18;64185.75;;;-137.53
64904;BMP280;51401;48.882;12.598;2024-01-30T04:59:46;64189.72;;;-137.53
64904;BMP280;51401;48.882;12.598;2024-01-30T05:02:12;64187.75;;;-137.53
64904;BMP280;51401;48.882;12.598;2024-01-30T05:04:37;64185.75;;;-137.53
64904;BMP280;51401;48.882;12.598;2024-01-30T05:07:03;64187.75;;;-137.53
64904;BMP280;51401;48.882;12.598;2024-01-30T05:09:28;64187.75;;;-137.53
64904;BMP280;51401;48.882;12.598;2024-01-30T05:11:53;64181.78;;;-137.53
64904;BMP280;51401;48.882;12.598;2024-01-30T05:14:22;64183.78;;;-137.53
64904;BMP280;51401;48.882;12.598;2024-01-30T05:16:47;64185.75;;;-137.53
64904;BMP280;51401;48.882;12.598;2024-01-30T05:19:13;64181.78;;;-137.53
64904;BMP280;51401;48.882;12.598;2024-01-30T05:21:39;64187.75;;;-137.53
64904;BMP280;51401;48.882;12.598;2024-01-30T05:24:05;64185.75;;;-137.53
64904;BMP280;51401;48.882;12.598;2024-01-30T05:26:30;64187.75;;;-137.53
64904;BMP280;51401;48.882;12.598;2024-01-30T05:28:56;64187.75;;;-137.53
64904;BMP280;51401;48.882;12.598;2024-01-30T05:31:21;64183.78;;;-137.53
64904;BMP280;51401;48.882;12.598;2024-01-30T05:33:47;64183.78;;;-137.53
64904;BMP280;51401;48.882;12.598;2024-01-30T05:36:12;64187.75;;;-137.53
64904;BMP280;51401;48.882;12.598;2024-01-30T05:38:40;64187.75;;;-137.53
64904;BMP280;51401;48.882;12.598;2024-01-30T05:41:05;64183.78;;;-137.53
64904;BMP280;51401;48.882;12.598;2024-01-30T05:43:31;64183.78;;;-137.53
64904;BMP280;51401;48.882;12.598;2024-01-30T05:45:56;64185.75;;;-137.53
64904;BMP280;51401;48.882;12.598;2024-01-30T05:48:21;64183.78;;;-137.53
64904;BMP280;51401;48.882;12.598;2024-01-30T05:50:47;64183.78;;;-137.53
64904;BMP280;51401;48.882;12.598;2024-01-30T05:53:12;64187.75;;;-137.53
64904;BMP280;51401;48.882;12.598;2024-01-30T05:55:37;64187.75;;;-137.53
64904;BMP280;51401;48.882;12.598;2024-01-30T05:58:03;64185.75;;;-137.53
64904;BMP280;51401;48.882;12.598;2024-01-30T06:00:29;64185.75;;;-137.53
64904;BMP280;51401;48.882;12.598;2024-01-30T06:02:54;64185.75;;;-137.53
64904;BMP280;51401;48.882;12.598;2024-01-30T06:05:19;64185.75;;;-137.53
64904;BMP280;51401;48.882;12.598;2024-01-30T06:07:44;64187.75;;;-137.53
64904;BMP280;51401;48.882;12.598;2024-01-30T06:10:10;64185.75;;;-137.53
64904;BMP280;51401;48.882;12.598;2024-01-30T06:12:35;64185.75;;;-137.53
64904;BMP280;51401;48.882;12.598;2024-01-30T06:15:01;64185.75;;;-137.53
64904;BMP280;51401;48.882;12.598;2024-01-30T06:17:27;64187.75;;;-137.53
64904;BMP280;51401;48.882;12.598;2024-01-30T06:19:53;64185.75;;;-137.53
64904;BMP280;51401;48.882;12.598;2024-01-30T06:22:18;64187.75;;;-137.53
64904;BMP280;51401;48.882;12.598;2024-01-30T06:24:43;64183.78;;;-137.53
64904;BMP280;51401;48.882;12.598;2024-01-30T06:27:10;64185.75;;;-137.53
64904;BMP280;51401;48.882;12.598;2024-01-30T06:29:35;64181.78;;;-137.53
64904;BMP280;51401;48.882;12.598;2024-01-30T06:32:01;64183.78;;;-137.53
64904;BMP280;51401;48.882;12.598;2024-01-30T06:34:26;64185.75;;;-137.53
64904;BMP280;51401;48.882;12.598;2024-01-30T06:36:52;64187.75;;;-137.53
64904;BMP280;51401;48.882;12.598;2024-01-30T06:39:17;64185.75;;;-137.53
64904;BMP280;51401;48.882;12.598;2024-01-30T06:41:42;64183.78;;;-137.53
64904;BMP280;51401;48.882;12.598;2024-01-30T06:44:08;64185.75;;;-137.53
64904;BMP280;51401;48.882;12.598;2024-01-30T06:46:33;64185.75;;;-137.53
64904;BMP280;51401;48.882;12.598;2024-01-30T06:48:59;64183.78;;;-137.53
64904;BMP280;51401;48.882;12.598;2024-01-30T06:51:24;64185.75;;;-137.53
64904;BMP280;51401;48.882;12.598;2024-01-30T06:53:49;64183.78;;;-137.53
64904;BMP280;51401;48.882;12.598;2024-01-30T06:56:15;64183.78;;;-137.53
64904;BMP280;51401;48.882;12.598;2024-01-30T06:58:45;64179.81;;;-137.53
64904;BMP280;51401;48.882;12.598;2024-01-30T07:01:11;64183.78;;;-137.53
64904;BMP280;51401;48.882;12.598;2024-01-30T07:03:36;64183.78;;;-137.53
64904;BMP280;51401;48.882;12.598;2024-01-30T07:06:02;64185.75;;;-137.53
64904;BMP280;51401;48.882;12.598;2024-01-30T07:08:27;64183.78;;;-137.53
64904;BMP280;51401;48.882;12.598;2024-01-30T07:10:52;64183.78;;;-137.53
64904;BMP280;51401;48.882;12.598;2024-01-30T07:13:20;64183.78;;;-137.53
64904;BMP280;51401;48.882;12.598;2024-01-30T07:15:45;64183.78;;;-137.53
64904;BMP280;51401;48.882;12.598;2024-01-30T07:18:11;64183.78;;;-137.53
64904;BMP280;51401;48.882;12.598;2024-01-30T07:20:38;64183.78;;;-137.53
64904;BMP280;51401;48.882;12.598;2024-01-30T07:23:07;64183.78;;;-137.53
64904;BMP280;51401;48.882;12.598;2024-01-30T07:25:33;64183.78;;;-137.53
64904;BMP280;51401;48.882;12.598;2024-01-30T07:28:01;64183.78;;;-137.53
64904;BMP280;51401;48.882;12.598;2024-01-30T07:30:26;64183.78;;;-137.53
64904;BMP280;51401;48.882;12.598;2024-01-30T07:32:52;64183.78;;;-137.53
64904;BMP280;51401;48.882;12.598;2024-01-30T07:35:17;64183.78;;;-137.53
64904;BMP280;51401;48.882;12.598;2024-01-30T07:37:42;64181.78;;;-137.53
64904;BMP280;51401;48.882;12.598;2024-01-30T07:40:08;64179.81;;;-137.53
64904;BMP280;51401;48.882;12.598;2024-01-30T07:42:33;64181.78;;;-137.53
64904;BMP280;51401;48.882;12.598;2024-01-30T07:45:00;64179.81;;;-137.53
64904;BMP280;51401;48.882;12.598;2024-01-30T07:47:25;64179.81;;;-137.53
64904;BMP280;51401;48.882;12.598;2024-01-30T07:49:51;64177.81;;;-137.53
64904;BMP280;51401;48.882;12.598;2024-01-30T07:52:17;64177.81;;;-137.53
64904;BMP280;51401;48.882;12.598;2024-01-30T07:54:42;64179.81;;;-137.53
64904;BMP280;51401;48.882;12.598;2024-01-30T07:57:07;64177.81;;;-137.53
64904;BMP280;51401;48.882;12.598;2024-01-30T07:59:33;64177.81;;;-137.53
64904;BMP280;51401;48.882;12.598;2024-01-30T08:01:58;64179.81;;;-137.53
64904;BMP280;51401;48.882;12.598;2024-01-30T08:04:23;64183.78;;;-137.53
64904;BMP280;51401;48.882;12.598;2024-01-30T08:06:48;64177.81;;;-137.53
64904;BMP280;51401;48.882;12.598;2024-01-30T08:09:14;64171.84;;;-137.53
64904;BMP280;51401;48.882;12.598;2024-01-30T08:11:39;64179.81;;;-137.53
64904;BMP280;51401;48.882;12.598;2024-01-30T08:14:05;64179.81;;;-137.53
64904;BMP280;51401;48.882;12.598;2024-01-30T08:16:30;64175.84;;;-137.53
64904;BMP280;51401;48.882;12.598;2024-01-30T08:18:55;64179.81;;;-137.53
64904;BMP280;51401;48.882;12.598;2024-01-30T08:21:22;64175.84;;;-137.53
64904;BMP280;51401;48.882;12.598;2024-01-30T08:23:47;64175.84;;;-137.53
64904;BMP280;51401;48.882;12.598;2024-01-30T08:26:13;64173.84;;;-137.53
64904;BMP280;51401;48.882;12.598;2024-01-30T08:28:38;64171.84;;;-137.53
64904;BMP280;51401;48.882;12.598;2024-01-30T08:31:03;64175.84;;;-137.53
64904;BMP280;51401;48.882;12.598;2024-01-30T08:33:29;64175.84;;;-137.53
64904;BMP280;51401;48.882;12.598;2024-01-30T08:35:57;64171.84;;;-137.53
64904;BMP280;51401;48.882;12.598;2024-01-30T08:38:22;64173.84;;;-137.53
64904;BMP280;51401;48.882;12.598;2024-01-30T08:40:47;64173.84;;;-137.53
64904;BMP280;51401;48.882;12.598;2024-01-30T08:43:12;64171.84;;;-137.53
64904;BMP280;51401;48.882;12.598;2024-01-30T08:45:38;64171.84;;;-137.53
64904;BMP280;51401;48.882;12.598;2024-01-30T08:48:03;64167.88;;;-137.53
64904;BMP280;51401;48.882;12.598;2024-01-30T08:50:29;64171.84;;;-137.53
64904;BMP280;51401;48.882;12.598;2024-01-30T08:52:55;64171.84;;;-137.53
64904;BMP280;51401;48.882;12.598;2024-01-30T08:55:20;64169.88;;;-137.53
64904;BMP280;51401;48.882;12.598;2024-01-30T08:57:45;64169.88;;;-137.53
64904;BMP280;51401;48.882;12.598;2024-01-30T09:00:11;64169.88;;;-137.53
64904;BMP280;51401;48.882;12.598;2024-01-30T09:02:36;64169.88;;;-137.53
64904;BMP280;51401;48.882;12.598;2024-01-30T09:05:02;64171.84;;;-137.53
64904;BMP280;51401;48.882;12.598;2024-01-30T09:07:27;64171.84;;;-137.53
64904;BMP280;51401;48.882;12.598;2024-01-30T09:09:53;64171.84;;;-137.53
64904;BMP280;51401;48.882;12.598;2024-01-30T09:12:18;64171.84;;;-137.53
64904;BMP280;51401;48.882;12.598;2024-01-30T09:14:43;64171.84;;;-137.53
64904;BMP280;51401;48.882;12.598;2024-01-30T09:17:08;64171.84;;;-137.53
64904;BMP280;51401;48.882;12.598;2024-01-30T09:19:34;64167.88;;;-137.53
64904;BMP280;51401;48.882;12.598;2024-01-30T09:21:59;64167.88;;;-137.53
64904;BMP280;51401;48.882;12.598;2024-01-30T09:24:26;64171.84;;;-137.53
64904;BMP280;51401;48.882;12.598;2024-01-30T09:26:51;64169.88;;;-137.53
64904;BMP280;51401;48.882;12.598;2024-01-30T09:29:17;64165.91;;;-137.53
64904;BMP280;51401;48.882;12.598;2024-01-30T09:31:45;64167.88;;;-137.53
64904;BMP280;51401;48.882;12.598;2024-01-30T09:34:11;64167.88;;;-137.53
64904;BMP280;51401;48.882;12.598;2024-01-30T09:36:36;64167.88;;;-137.53
64904;BMP280;51401;48.882;12.598;2024-01-30T09:39:02;64169.88;;;-137.53
64904;BMP280;51401;48.882;12.598;2024-01-30T09:41:29;64169.88;;;-137.53
64904;BMP280;51401;48.882;12.598;2024-01-30T09:43:57;64163.91;;;-137.53
64904;BMP280;51401;48.882;12.598;2024-01-30T09:46:26;64165.91;;;-137.53
64904;BMP280;51401;48.882;12.598;2024-01-30T09:48:53;64165.91;;;-137.53
64904;BMP280;51401;48.882;12.598;2024-01-30T09:51:20;64165.91;;;-137.53
64904;BMP280;51401;48.882;12.598;2024-01-30T09:53:46;64167.88;;;-137.53
64904;BMP280;51401;48.882;12.598;2024-01-30T09:56:15;64163.91;;;-137.53
64904;BMP280;51401;48.882;12.598;2024-01-30T09:58:41;64163.91;;;-137.53
64904;BMP280;51401;48.882;12.598;2024-01-30T10:01:07;64165.91;;;-137.53
64904;BMP280;51401;48.882;12.598;2024-01-30T10:03:32;64167.88;;;-137.53
64904;BMP280;51401;48.882;12.598;2024-01-30T10:05:58;64163.91;;;-137.53
64904;BMP280;51401;48.882;12.598;2024-01-30T10:08:23;64163.91;;;-137.53
64904;BMP280;51401;48.882;12.598;2024-01-30T10:10:49;64161.94;;;-137.53
64904;BMP280;51401;48.882;12.598;2024-01-30T10:13:15;64163.91;;;-137.53
64904;BMP280;51401;48.882;12.598;2024-01-30T10:15:41;64161.94;;;-137.53
64904;BMP280;51401;48.882;12.598;2024-01-30T10:18:07;64161.94;;;-137.53
64904;BMP280;51401;48.882;12.598;2024-01-30T10:20:33;64163.91;;;-137.53
64904;BMP280;51401;48.882;12.598;2024-01-30T10:22:59;64161.94;;;-137.53
64904;BMP280;51401;48.882;12.598;2024-01-30T10:25:25;64163.91;;;-137.53
64904;BMP280;51401;48.882;12.598;2024-01-30T10:27:54;64163.91;;;-137.53
64904;BMP280;51401;48.882;12.598;2024-01-30T10:30:21;64161.94;;;-137.53
64904;BMP280;51401;48.882;12.598;2024-01-30T10:32:46;64163.91;;;-137.53
64904;BMP280;51401;48.882;12.598;2024-01-30T10:35:12;64163.91;;;-137.53
64904;BMP280;51401;48.882;12.598;2024-01-30T10:37:38;64163.91;;;-137.53
64904;BMP280;51401;48.882;12.598;2024-01-30T10:40:03;64165.91;;;-137.53
64904;BMP280;51401;48.882;12.598;2024-01-30T10:42:32;64161.94;;;-137.53
64904;BMP280;51401;48.882;12.598;2024-01-30T10:45:07;64159.94;;;-137.53
64904;BMP280;51401;48.882;12.598;2024-01-30T10:47:53;64161.94;;;-137.53
64904;BMP280;51401;48.882;12.598;2024-01-30T10:50:18;64159.94;;;-137.53
64904;BMP280;51401;48.882;12.598;2024-01-30T10:52:45;64161.94;;;-137.53
64904;BMP280;51401;48.882;12.598;2024-01-30T10:55:11;64163.91;;;-137.53
64904;BMP280;51401;48.882;12.598;2024-01-30T10:57:37;64161.94;;;-137.53
64904;BMP280;51401;48.882;12.598;2024-01-30T11:00:05;64161.94;;;-137.53
64904;BMP280;51401;48.882;12.598;2024-01-30T11:02:39;64159.94;;;-137.53
64904;BMP280;51401;48.882;12.598;2024-01-30T11:05:05;64159.94;;;-137.53
64904;BMP280;51401;48.882;12.598;2024-01-30T11:07:31;64155.97;;;-137.53
64904;BMP280;51401;48.882;12.598;2024-01-30T11:10:01;64159.94;;;-137.53
64904;BMP280;51401;48.882;12.598;2024-01-30T11:12:28;64159.94;;;-137.53
64904;BMP280;51401;48.882;12.598;2024-01-30T11:15:07;64159.94;;;-137.53
64904;BMP280;51401;48.882;12.598;2024-01-30T11:18:00;64159.94;;;-137.53
64904;BMP280;51401;48.882;12.598;2024-01-30T11:20:29;64159.94;;;-137.53
64904;BMP280;51401;48.882;12.598;2024-01-30T11:22:58;64157.97;;;-137.53
64904;BMP280;51401;48.882;12.598;2024-01-30T11:25:25;64155.97;;;-137.53
64904;BMP280;51401;48.882;12.598;2024-01-30T11:27:52;64159.94;;;-137.53
64904;BMP280;51401;48.882;12.598;2024-01-30T11:33:10;64161.94;;;-137.53
64904;BMP280;51401;48.882;12.598;2024-01-30T11:35:37;64159.94;;;-137.53
64904;BMP280;51401;48.882;12.598;2024-01-30T11:38:05;64161.94;;;-137.53
64904;BMP280;51401;48.882;12.598;2024-01-30T11:40:31;64163.91;;;-137.53
64904;BMP280;51401;48.882;12.598;2024-01-30T11:43:00;64159.94;;;-137.53
64904;BMP280;51401;48.882;12.598;2024-01-30T11:45:27;64159.94;;;-137.53
64904;BMP280;51401;48.882;12.598;2024-01-30T11:47:52;64157.97;;;-137.53
64904;BMP280;51401;48.882;12.598;2024-01-30T11:50:18;64157.97;;;-137.53
64904;BMP280;51401;48.882;12.598;2024-01-30T11:52:44;64159.94;;;-137.53
64904;BMP280;51401;48.882;12.598;2024-01-30T11:55:10;64157.97;;;-137.53
64904;BMP280;51401;48.882;12.598;2024-01-30T11:57:35;64155.97;;;-137.53
64904;BMP280;51401;48.882;12.598;2024-01-30T12:00:02;64159.94;;;-137.53
64904;BMP280;51401;48.882;12.598;2024-01-30T12:02:33;64157.97;;;-137.53
64904;BMP280;51401;48.882;12.598;2024-01-30T12:05:04;64155.97;;;-137.53
64904;BMP280;51401;48.882;12.598;2024-01-30T12:07:29;64159.94;;;-137.53
64904;BMP280;51401;48.882;12.598;2024-01-30T12:09:54;64155.97;;;-137.53
64904;BMP280;51401;48.882;12.598;2024-01-30T12:12:23;64159.94;;;-137.53
64904;BMP280;51401;48.882;12.598;2024-01-30T12:14:49;64159.94;;;-137.53
64904;BMP280;51401;48.882;12.598;2024-01-30T12:17:28;64157.97;;;-137.53
64904;BMP280;51401;48.882;12.598;2024-01-30T12:20:10;64155.97;;;-137.53
64904;BMP280;51401;48.882;12.598;2024-01-30T12:22:43;64155.97;;;-137.53
64904;BMP280;51401;48.882;12.598;2024-01-30T12:25:10;64157.97;;;-137.53
64904;BMP280;51401;48.882;12.598;2024-01-30T12:27:36;64155.97;;;-137.53
64904;BMP280;51401;48.882;12.598;2024-01-30T12:30:08;64155.97;;;-137.53
64904;BMP280;51401;48.882;12.598;2024-01-30T12:32:35;64155.97;;;-137.53
64904;BMP280;51401;48.882;12.598;2024-01-30T12:35:01;64157.97;;;-137.53
64904;BMP280;51401;48.882;12.598;2024-01-30T12:37:26;64157.97;;;-137.53
64904;BMP280;51401;48.882;12.598;2024-01-30T12:39:52;64152.00;;;-137.53
64904;BMP280;51401;48.882;12.598;2024-01-30T12:42:19;64155.97;;;-137.53
64904;BMP280;51401;48.882;12.598;2024-01-30T12:44:45;64155.97;;;-137.53
64904;BMP280;51401;48.882;12.598;2024-01-30T12:47:10;64157.97;;;-137.53
64904;BMP280;51401;48.882;12.598;2024-01-30T12:49:36;64155.97;;;-137.53
64904;BMP280;51401;48.882;12.598;2024-01-30T12:52:01;64154.00;;;-137.53
64904;BMP280;51401;48.882;12.598;2024-01-30T12:54:27;64154.00;;;-137.53
64904;BMP280;51401;48.882;12.598;2024-01-30T12:56:52;64155.97;;;-137.53
64904;BMP280;51401;48.882;12.598;2024-01-30T12:59:17;64155.97;;;-137.53
64904;BMP280;51401;48.882;12.598;2024-01-30T13:01:42;64155.97;;;-137.53
64904;BMP280;51401;48.882;12.598;2024-01-30T13:04:08;64154.00;;;-137.53
64904;BMP280;51401;48.882;12.598;2024-01-30T13:06:33;64154.00;;;-137.53
64904;BMP280;51401;48.882;12.598;2024-01-30T13:08:58;64157.97;;;-137.53
64904;BMP280;51401;48.882;12.598;2024-01-30T13:11:24;64154.00;;;-137.53
64904;BMP280;51401;48.882;12.598;2024-01-30T13:13:51;64155.97;;;-137.53
64904;BMP280;51401;48.882;12.598;2024-01-30T13:16:16;64157.97;;;-137.53
64904;BMP280;51401;48.882;12.598;2024-01-30T13:18:42;64152.00;;;-137.53
64904;BMP280;51401;48.882;12.598;2024-01-30T13:21:07;64152.00;;;-137.53
64904;BMP280;51401;48.882;12.598;2024-01-30T13:23:32;64155.97;;;-137.53
64904;BMP280;51401;48.882;12.598;2024-01-30T13:25:58;64154.00;;;-137.53
64904;BMP280;51401;48.882;12.598;2024-01-30T13:28:24;64150.03;;;-137.53